Aviation Digital Data Service (ADDS)

Output produced by TAFs form (0755 UTC 19 April 2015)
found at http://www.aviationweather.gov/adds/tafs/
 
KMDT 190537Z 1906/2006 06009KT P6SM SCT250 
     FM191200 09010KT P6SM BKN250 
     FM191800 12012G19KT P6SM SCT050 OVC200 
     FM200200 12015G25KT P6SM -SHRA OVC040 WS020/12035KT